sensor_id;sensor_type;location;lat;lon;timestamp;P1;durP1;ratioP1;P2;durP2;ratioP2
14094;SDS011;18096;48.142;16.290;2022-10-17T00:00:43;36.95;;;25.00;;
14094;SDS011;18096;48.142;16.290;2022-10-17T00:03:09;35.38;;;23.42;;
14094;SDS011;18096;48.142;16.290;2022-10-17T00:05:38;43.35;;;25.02;;
14094;SDS011;18096;48.142;16.290;2022-10-17T00:08:07;38.35;;;25.25;;
14094;SDS011;18096;48.142;16.290;2022-10-17T00:10:33;44.40;;;25.23;;
14094;SDS011;18096;48.142;16.290;2022-10-17T00:13:00;44.45;;;26.52;;
14094;SDS011;18096;48.142;16.290;2022-10-17T00:15:25;43.50;;;25.60;;
14094;SDS011;18096;48.142;16.290;2022-10-17T00:17:51;52.67;;;25.73;;
14094;SDS011;18096;48.142;16.290;2022-10-17T00:20:17;40.42;;;25.98;;
14094;SDS011;18096;48.142;16.290;2022-10-17T00:22:43;40.75;;;26.17;;
14094;SDS011;18096;48.142;16.290;2022-10-17T00:25:08;45.70;;;26.67;;
14094;SDS011;18096;48.142;16.290;2022-10-17T00:27:38;36.35;;;25.27;;
14094;SDS011;18096;48.142;16.290;2022-10-17T00:30:06;38.63;;;25.58;;
14094;SDS011;18096;48.142;16.290;2022-10-17T00:32:34;46.67;;;27.02;;
14094;SDS011;18096;48.142;16.290;2022-10-17T00:35:00;42.58;;;28.23;;
14094;SDS011;18096;48.142;16.290;2022-10-17T00:37:26;45.28;;;27.05;;
14094;SDS011;18096;48.142;16.290;2022-10-17T00:39:53;52.30;;;28.70;;
14094;SDS011;18096;48.142;16.290;2022-10-17T00:42:19;47.60;;;28.53;;
14094;SDS011;18096;48.142;16.290;2022-10-17T00:47:13;52.10;;;27.40;;
14094;SDS011;18096;48.142;16.290;2022-10-17T00:49:44;48.40;;;26.80;;
14094;SDS011;18096;48.142;16.290;2022-10-17T00:52:21;42.08;;;25.75;;
14094;SDS011;18096;48.142;16.290;2022-10-17T00:54:54;44.42;;;26.55;;
14094;SDS011;18096;48.142;16.290;2022-10-17T00:57:23;42.10;;;26.80;;
14094;SDS011;18096;48.142;16.290;2022-10-17T00:59:51;44.42;;;26.85;;
14094;SDS011;18096;48.142;16.290;2022-10-17T01:02:20;43.55;;;25.50;;
14094;SDS011;18096;48.142;16.290;2022-10-17T01:04:47;40.97;;;25.90;;
14094;SDS011;18096;48.142;16.290;2022-10-17T01:07:16;42.88;;;26.52;;
14094;SDS011;18096;48.142;16.290;2022-10-17T01:09:42;47.50;;;27.77;;
14094;SDS011;18096;48.142;16.290;2022-10-17T01:17:32;40.73;;;26.67;;
14094;SDS011;18096;48.142;16.290;2022-10-17T01:20:13;44.57;;;27.10;;
14094;SDS011;18096;48.142;16.290;2022-10-17T01:32:03;39.08;;;26.10;;
14094;SDS011;18096;48.142;16.290;2022-10-17T01:34:47;44.95;;;28.00;;
14094;SDS011;18096;48.142;16.290;2022-10-17T01:38:22;45.03;;;28.08;;
14094;SDS011;18096;48.142;16.290;2022-10-17T01:40:21;45.95;;;26.48;;
14094;SDS011;18096;48.142;16.290;2022-10-17T01:42:57;41.97;;;25.48;;
14094;SDS011;18096;48.142;16.290;2022-10-17T01:48:03;43.95;;;25.73;;
14094;SDS011;18096;48.142;16.290;2022-10-17T01:50:37;43.60;;;26.30;;
14094;SDS011;18096;48.142;16.290;2022-10-17T01:53:15;42.58;;;25.33;;
14094;SDS011;18096;48.142;16.290;2022-10-17T01:55:51;44.97;;;26.60;;
14094;SDS011;18096;48.142;16.290;2022-10-17T01:58:35;42.15;;;25.40;;
14094;SDS011;18096;48.142;16.290;2022-10-17T02:01:05;39.00;;;24.52;;
14094;SDS011;18096;48.142;16.290;2022-10-17T02:03:32;45.55;;;26.13;;
14094;SDS011;18096;48.142;16.290;2022-10-17T02:05:59;44.10;;;26.83;;
14094;SDS011;18096;48.142;16.290;2022-10-17T02:08:26;39.25;;;24.92;;
14094;SDS011;18096;48.142;16.290;2022-10-17T02:10:57;42.63;;;25.92;;
14094;SDS011;18096;48.142;16.290;2022-10-17T02:16:29;43.53;;;25.50;;
14094;SDS011;18096;48.142;16.290;2022-10-17T02:19:06;41.50;;;25.55;;
14094;SDS011;18096;48.142;16.290;2022-10-17T02:22:00;35.55;;;25.13;;
14094;SDS011;18096;48.142;16.290;2022-10-17T02:27:16;40.25;;;23.75;;
14094;SDS011;18096;48.142;16.290;2022-10-17T02:30:00;42.55;;;26.10;;
14094;SDS011;18096;48.142;16.290;2022-10-17T02:35:08;44.75;;;25.77;;
14094;SDS011;18096;48.142;16.290;2022-10-17T02:37:37;44.78;;;26.63;;
14094;SDS011;18096;48.142;16.290;2022-10-17T02:40:06;40.70;;;26.00;;
14094;SDS011;18096;48.142;16.290;2022-10-17T02:42:34;42.50;;;25.15;;
14094;SDS011;18096;48.142;16.290;2022-10-17T02:45:01;37.80;;;24.50;;
14094;SDS011;18096;48.142;16.290;2022-10-17T02:47:31;44.00;;;25.75;;
14094;SDS011;18096;48.142;16.290;2022-10-17T02:50:00;38.55;;;24.20;;
14094;SDS011;18096;48.142;16.290;2022-10-17T02:52:27;42.47;;;25.77;;
14094;SDS011;18096;48.142;16.290;2022-10-17T02:54:56;44.30;;;25.80;;
14094;SDS011;18096;48.142;16.290;2022-10-17T02:57:31;37.45;;;24.20;;
14094;SDS011;18096;48.142;16.290;2022-10-17T03:00:02;39.42;;;23.92;;
14094;SDS011;18096;48.142;16.290;2022-10-17T03:02:40;39.45;;;24.75;;
14094;SDS011;18096;48.142;16.290;2022-10-17T03:05:08;44.65;;;24.65;;
14094;SDS011;18096;48.142;16.290;2022-10-17T03:07:35;40.92;;;24.10;;
14094;SDS011;18096;48.142;16.290;2022-10-17T03:10:01;41.73;;;24.63;;
14094;SDS011;18096;48.142;16.290;2022-10-17T03:12:26;42.75;;;23.50;;
14094;SDS011;18096;48.142;16.290;2022-10-17T03:14:52;38.37;;;24.13;;
14094;SDS011;18096;48.142;16.290;2022-10-17T03:17:17;40.50;;;23.80;;
14094;SDS011;18096;48.142;16.290;2022-10-17T03:19:43;37.08;;;23.33;;
14094;SDS011;18096;48.142;16.290;2022-10-17T03:22:09;36.50;;;23.90;;
14094;SDS011;18096;48.142;16.290;2022-10-17T03:24:34;34.13;;;23.73;;
14094;SDS011;18096;48.142;16.290;2022-10-17T03:27:00;42.53;;;24.07;;
14094;SDS011;18096;48.142;16.290;2022-10-17T03:29:25;34.27;;;22.50;;
14094;SDS011;18096;48.142;16.290;2022-10-17T03:31:51;38.40;;;24.30;;
14094;SDS011;18096;48.142;16.290;2022-10-17T03:34:17;47.10;;;24.40;;
14094;SDS011;18096;48.142;16.290;2022-10-17T03:36:43;39.08;;;26.25;;
14094;SDS011;18096;48.142;16.290;2022-10-17T03:39:09;39.42;;;25.20;;
14094;SDS011;18096;48.142;16.290;2022-10-17T03:41:35;38.00;;;25.10;;
14094;SDS011;18096;48.142;16.290;2022-10-17T03:44:00;41.23;;;26.60;;
14094;SDS011;18096;48.142;16.290;2022-10-17T03:46:26;41.75;;;27.05;;
14094;SDS011;18096;48.142;16.290;2022-10-17T03:48:52;49.53;;;27.43;;
14094;SDS011;18096;48.142;16.290;2022-10-17T03:51:17;43.30;;;26.50;;
14094;SDS011;18096;48.142;16.290;2022-10-17T03:53:43;41.88;;;26.55;;
14094;SDS011;18096;48.142;16.290;2022-10-17T03:56:13;45.90;;;26.67;;
14094;SDS011;18096;48.142;16.290;2022-10-17T03:58:40;45.55;;;27.73;;
14094;SDS011;18096;48.142;16.290;2022-10-17T04:01:07;50.70;;;27.63;;
14094;SDS011;18096;48.142;16.290;2022-10-17T04:03:34;42.87;;;26.70;;
14094;SDS011;18096;48.142;16.290;2022-10-17T04:06:00;42.73;;;27.20;;
14094;SDS011;18096;48.142;16.290;2022-10-17T04:08:27;43.80;;;27.77;;
14094;SDS011;18096;48.142;16.290;2022-10-17T04:11:03;47.00;;;25.98;;
14094;SDS011;18096;48.142;16.290;2022-10-17T04:13:31;42.17;;;26.00;;
14094;SDS011;18096;48.142;16.290;2022-10-17T04:16:08;48.85;;;26.90;;
14094;SDS011;18096;48.142;16.290;2022-10-17T04:18:36;39.30;;;25.35;;
14094;SDS011;18096;48.142;16.290;2022-10-17T04:21:05;45.63;;;27.92;;
14094;SDS011;18096;48.142;16.290;2022-10-17T04:23:32;44.85;;;28.02;;
14094;SDS011;18096;48.142;16.290;2022-10-17T04:25:58;48.38;;;27.35;;
14094;SDS011;18096;48.142;16.290;2022-10-17T04:28:25;45.28;;;27.02;;
14094;SDS011;18096;48.142;16.290;2022-10-17T04:30:58;44.00;;;27.42;;
14094;SDS011;18096;48.142;16.290;2022-10-17T04:33:26;46.40;;;28.20;;
14094;SDS011;18096;48.142;16.290;2022-10-17T04:35:58;42.97;;;26.13;;
14094;SDS011;18096;48.142;16.290;2022-10-17T04:38:25;43.83;;;26.73;;
14094;SDS011;18096;48.142;16.290;2022-10-17T04:40:51;45.45;;;27.30;;
14094;SDS011;18096;48.142;16.290;2022-10-17T04:43:17;49.25;;;27.00;;
14094;SDS011;18096;48.142;16.290;2022-10-17T04:45:43;48.13;;;25.83;;
14094;SDS011;18096;48.142;16.290;2022-10-17T04:48:09;44.53;;;25.65;;
14094;SDS011;18096;48.142;16.290;2022-10-17T04:50:35;46.10;;;27.67;;
14094;SDS011;18096;48.142;16.290;2022-10-17T04:53:00;43.43;;;26.97;;
14094;SDS011;18096;48.142;16.290;2022-10-17T04:55:26;45.78;;;25.65;;
14094;SDS011;18096;48.142;16.290;2022-10-17T04:57:52;42.78;;;26.30;;
14094;SDS011;18096;48.142;16.290;2022-10-17T05:00:17;40.90;;;26.23;;
14094;SDS011;18096;48.142;16.290;2022-10-17T05:02:43;41.30;;;25.85;;
14094;SDS011;18096;48.142;16.290;2022-10-17T05:05:09;44.70;;;26.77;;
14094;SDS011;18096;48.142;16.290;2022-10-17T05:07:38;42.60;;;26.77;;
14094;SDS011;18096;48.142;16.290;2022-10-17T05:10:04;47.63;;;27.92;;
14094;SDS011;18096;48.142;16.290;2022-10-17T05:12:30;45.72;;;26.88;;
14094;SDS011;18096;48.142;16.290;2022-10-17T05:14:56;52.13;;;27.73;;
14094;SDS011;18096;48.142;16.290;2022-10-17T05:17:21;45.80;;;27.50;;
14094;SDS011;18096;48.142;16.290;2022-10-17T05:19:47;43.20;;;26.88;;
14094;SDS011;18096;48.142;16.290;2022-10-17T05:22:13;44.83;;;27.10;;
14094;SDS011;18096;48.142;16.290;2022-10-17T05:24:38;39.97;;;26.83;;
14094;SDS011;18096;48.142;16.290;2022-10-17T05:27:04;45.60;;;27.73;;
14094;SDS011;18096;48.142;16.290;2022-10-17T05:29:29;44.70;;;26.67;;
14094;SDS011;18096;48.142;16.290;2022-10-17T05:31:55;44.58;;;26.90;;
14094;SDS011;18096;48.142;16.290;2022-10-17T05:34:21;48.10;;;25.85;;
14094;SDS011;18096;48.142;16.290;2022-10-17T05:36:47;46.70;;;26.20;;
14094;SDS011;18096;48.142;16.290;2022-10-17T05:39:12;45.10;;;26.03;;
14094;SDS011;18096;48.142;16.290;2022-10-17T05:41:43;46.05;;;26.40;;
14094;SDS011;18096;48.142;16.290;2022-10-17T05:44:09;40.22;;;26.20;;
14094;SDS011;18096;48.142;16.290;2022-10-17T05:46:35;43.00;;;26.90;;
14094;SDS011;18096;48.142;16.290;2022-10-17T05:49:00;45.83;;;28.60;;
14094;SDS011;18096;48.142;16.290;2022-10-17T05:51:26;44.80;;;28.08;;
14094;SDS011;18096;48.142;16.290;2022-10-17T05:53:51;41.77;;;26.40;;
14094;SDS011;18096;48.142;16.290;2022-10-17T05:56:17;42.00;;;26.40;;
14094;SDS011;18096;48.142;16.290;2022-10-17T05:58:44;43.25;;;26.73;;
14094;SDS011;18096;48.142;16.290;2022-10-17T06:01:10;49.03;;;28.05;;
14094;SDS011;18096;48.142;16.290;2022-10-17T06:03:37;48.67;;;28.73;;
14094;SDS011;18096;48.142;16.290;2022-10-17T06:06:03;48.67;;;27.67;;
14094;SDS011;18096;48.142;16.290;2022-10-17T06:08:30;45.38;;;28.65;;
14094;SDS011;18096;48.142;16.290;2022-10-17T06:10:56;44.60;;;26.43;;
14094;SDS011;18096;48.142;16.290;2022-10-17T06:13:22;45.47;;;26.67;;
14094;SDS011;18096;48.142;16.290;2022-10-17T06:15:47;49.67;;;27.58;;
14094;SDS011;18096;48.142;16.290;2022-10-17T06:18:13;45.03;;;26.53;;
14094;SDS011;18096;48.142;16.290;2022-10-17T06:20:39;52.38;;;28.38;;
14094;SDS011;18096;48.142;16.290;2022-10-17T06:23:04;48.83;;;26.88;;
14094;SDS011;18096;48.142;16.290;2022-10-17T06:25:31;37.90;;;25.63;;
14094;SDS011;18096;48.142;16.290;2022-10-17T06:27:57;44.58;;;28.38;;
14094;SDS011;18096;48.142;16.290;2022-10-17T06:30:23;47.47;;;28.30;;
14094;SDS011;18096;48.142;16.290;2022-10-17T06:32:48;49.47;;;28.13;;
14094;SDS011;18096;48.142;16.290;2022-10-17T06:35:15;45.47;;;28.17;;
14094;SDS011;18096;48.142;16.290;2022-10-17T06:37:41;46.90;;;28.90;;
14094;SDS011;18096;48.142;16.290;2022-10-17T06:40:06;52.20;;;30.27;;
14094;SDS011;18096;48.142;16.290;2022-10-17T06:42:34;50.67;;;30.25;;
14094;SDS011;18096;48.142;16.290;2022-10-17T06:45:00;51.85;;;32.03;;
14094;SDS011;18096;48.142;16.290;2022-10-17T06:47:25;55.45;;;32.78;;
14094;SDS011;18096;48.142;16.290;2022-10-17T06:49:51;55.80;;;31.77;;
14094;SDS011;18096;48.142;16.290;2022-10-17T06:52:16;52.08;;;31.52;;
14094;SDS011;18096;48.142;16.290;2022-10-17T06:54:42;52.05;;;27.60;;
14094;SDS011;18096;48.142;16.290;2022-10-17T06:57:08;48.65;;;27.65;;
14094;SDS011;18096;48.142;16.290;2022-10-17T06:59:34;45.15;;;25.85;;
14094;SDS011;18096;48.142;16.290;2022-10-17T07:02:00;42.70;;;26.63;;
14094;SDS011;18096;48.142;16.290;2022-10-17T07:04:26;41.80;;;26.53;;
14094;SDS011;18096;48.142;16.290;2022-10-17T07:06:52;41.70;;;25.37;;
14094;SDS011;18096;48.142;16.290;2022-10-17T07:09:18;39.50;;;25.93;;
14094;SDS011;18096;48.142;16.290;2022-10-17T07:11:44;42.05;;;24.30;;
14094;SDS011;18096;48.142;16.290;2022-10-17T07:14:10;41.97;;;24.10;;
14094;SDS011;18096;48.142;16.290;2022-10-17T07:16:35;34.72;;;23.73;;
14094;SDS011;18096;48.142;16.290;2022-10-17T07:19:01;42.77;;;24.13;;
14094;SDS011;18096;48.142;16.290;2022-10-17T07:21:26;40.05;;;23.90;;
14094;SDS011;18096;48.142;16.290;2022-10-17T07:23:52;43.83;;;23.13;;
14094;SDS011;18096;48.142;16.290;2022-10-17T07:26:18;39.23;;;24.77;;
14094;SDS011;18096;48.142;16.290;2022-10-17T07:28:45;42.10;;;23.90;;
14094;SDS011;18096;48.142;16.290;2022-10-17T07:31:13;38.20;;;24.70;;
14094;SDS011;18096;48.142;16.290;2022-10-17T07:33:41;41.60;;;25.30;;
14094;SDS011;18096;48.142;16.290;2022-10-17T07:36:07;39.20;;;23.60;;
14094;SDS011;18096;48.142;16.290;2022-10-17T07:38:33;41.92;;;25.38;;
14094;SDS011;18096;48.142;16.290;2022-10-17T07:41:00;55.17;;;26.15;;
14094;SDS011;18096;48.142;16.290;2022-10-17T07:43:27;45.72;;;25.33;;
14094;SDS011;18096;48.142;16.290;2022-10-17T07:45:53;44.55;;;26.67;;
14094;SDS011;18096;48.142;16.290;2022-10-17T07:48:19;43.10;;;25.83;;
14094;SDS011;18096;48.142;16.290;2022-10-17T07:50:46;42.80;;;25.73;;
14094;SDS011;18096;48.142;16.290;2022-10-17T07:53:12;40.38;;;24.95;;
14094;SDS011;18096;48.142;16.290;2022-10-17T07:55:38;41.45;;;25.30;;
14094;SDS011;18096;48.142;16.290;2022-10-17T07:58:05;39.65;;;26.35;;
14094;SDS011;18096;48.142;16.290;2022-10-17T08:00:31;45.67;;;26.17;;
14094;SDS011;18096;48.142;16.290;2022-10-17T08:02:57;40.83;;;26.10;;
14094;SDS011;18096;48.142;16.290;2022-10-17T08:05:23;43.08;;;25.65;;
14094;SDS011;18096;48.142;16.290;2022-10-17T08:07:48;40.60;;;25.40;;
14094;SDS011;18096;48.142;16.290;2022-10-17T08:10:14;44.78;;;27.42;;
14094;SDS011;18096;48.142;16.290;2022-10-17T08:12:40;41.50;;;25.92;;
14094;SDS011;18096;48.142;16.290;2022-10-17T08:15:06;51.97;;;26.60;;
14094;SDS011;18096;48.142;16.290;2022-10-17T08:17:33;42.25;;;26.10;;
14094;SDS011;18096;48.142;16.290;2022-10-17T08:20:00;42.13;;;27.05;;
14094;SDS011;18096;48.142;16.290;2022-10-17T08:22:26;50.10;;;28.15;;
14094;SDS011;18096;48.142;16.290;2022-10-17T08:24:52;47.63;;;28.10;;
14094;SDS011;18096;48.142;16.290;2022-10-17T08:27:18;51.37;;;28.80;;
14094;SDS011;18096;48.142;16.290;2022-10-17T08:29:48;44.60;;;27.42;;
14094;SDS011;18096;48.142;16.290;2022-10-17T08:32:17;46.97;;;28.05;;
14094;SDS011;18096;48.142;16.290;2022-10-17T08:34:46;47.95;;;28.77;;
14094;SDS011;18096;48.142;16.290;2022-10-17T08:37:12;47.20;;;28.08;;
14094;SDS011;18096;48.142;16.290;2022-10-17T08:39:39;46.33;;;27.47;;
14094;SDS011;18096;48.142;16.290;2022-10-17T08:47:28;50.05;;;29.20;;
14094;SDS011;18096;48.142;16.290;2022-10-17T08:50:08;61.72;;;28.60;;
14094;SDS011;18096;48.142;16.290;2022-10-17T08:52:50;43.80;;;28.30;;
14094;SDS011;18096;48.142;16.290;2022-10-17T08:55:26;45.55;;;26.83;;
14094;SDS011;18096;48.142;16.290;2022-10-17T08:57:56;49.00;;;27.55;;
14094;SDS011;18096;48.142;16.290;2022-10-17T09:00:21;50.20;;;28.03;;
14094;SDS011;18096;48.142;16.290;2022-10-17T09:13:45;52.27;;;31.27;;
14094;SDS011;18096;48.142;16.290;2022-10-17T09:16:33;46.10;;;29.00;;
14094;SDS011;18096;48.142;16.290;2022-10-17T09:19:07;51.70;;;29.65;;
14094;SDS011;18096;48.142;16.290;2022-10-17T09:24:16;48.72;;;29.92;;
14094;SDS011;18096;48.142;16.290;2022-10-17T09:26:44;48.67;;;28.97;;
14094;SDS011;18096;48.142;16.290;2022-10-17T09:29:28;54.90;;;30.98;;
14094;SDS011;18096;48.142;16.290;2022-10-17T09:32:09;53.63;;;28.97;;
14094;SDS011;18096;48.142;16.290;2022-10-17T09:34:42;47.05;;;29.63;;
14094;SDS011;18096;48.142;16.290;2022-10-17T09:37:14;49.03;;;29.83;;
14094;SDS011;18096;48.142;16.290;2022-10-17T09:39:41;48.35;;;29.65;;
14094;SDS011;18096;48.142;16.290;2022-10-17T09:42:14;48.95;;;28.60;;
14094;SDS011;18096;48.142;16.290;2022-10-17T09:45:27;50.38;;;29.30;;
14094;SDS011;18096;48.142;16.290;2022-10-17T09:47:46;46.28;;;29.38;;
14094;SDS011;18096;48.142;16.290;2022-10-17T09:50:26;57.80;;;29.75;;
14094;SDS011;18096;48.142;16.290;2022-10-17T09:52:54;47.47;;;29.90;;
14094;SDS011;18096;48.142;16.290;2022-10-17T09:55:30;51.33;;;30.00;;
14094;SDS011;18096;48.142;16.290;2022-10-17T09:57:59;54.60;;;31.98;;
14094;SDS011;18096;48.142;16.290;2022-10-17T10:03:12;49.88;;;28.50;;
14094;SDS011;18096;48.142;16.290;2022-10-17T10:11:16;55.40;;;32.05;;
14094;SDS011;18096;48.142;16.290;2022-10-17T10:13:43;61.45;;;30.70;;
14094;SDS011;18096;48.142;16.290;2022-10-17T10:16:21;45.85;;;29.45;;
14094;SDS011;18096;48.142;16.290;2022-10-17T10:18:55;53.28;;;30.45;;
14094;SDS011;18096;48.142;16.290;2022-10-17T10:21:25;45.35;;;29.17;;
14094;SDS011;18096;48.142;16.290;2022-10-17T10:24:02;43.07;;;27.60;;
14094;SDS011;18096;48.142;16.290;2022-10-17T10:26:37;48.22;;;26.65;;
14094;SDS011;18096;48.142;16.290;2022-10-17T10:29:05;49.55;;;26.30;;
14094;SDS011;18096;48.142;16.290;2022-10-17T10:31:44;47.60;;;25.70;;
14094;SDS011;18096;48.142;16.290;2022-10-17T10:34:15;40.70;;;25.30;;
14094;SDS011;18096;48.142;16.290;2022-10-17T10:36:54;39.20;;;23.98;;
14094;SDS011;18096;48.142;16.290;2022-10-17T10:42:22;34.25;;;22.48;;
14094;SDS011;18096;48.142;16.290;2022-10-17T10:44:50;39.08;;;23.02;;
14094;SDS011;18096;48.142;16.290;2022-10-17T10:47:19;34.90;;;22.60;;
14094;SDS011;18096;48.142;16.290;2022-10-17T10:49:47;37.63;;;23.90;;
14094;SDS011;18096;48.142;16.290;2022-10-17T10:52:59;37.05;;;23.70;;
14094;SDS011;18096;48.142;16.290;2022-10-17T10:55:31;35.70;;;21.55;;
14094;SDS011;18096;48.142;16.290;2022-10-17T10:58:19;34.03;;;20.30;;
14094;SDS011;18096;48.142;16.290;2022-10-17T11:01:04;32.72;;;19.85;;
14094;SDS011;18096;48.142;16.290;2022-10-17T11:03:39;36.10;;;21.10;;
14094;SDS011;18096;48.142;16.290;2022-10-17T11:06:12;33.63;;;21.75;;
14094;SDS011;18096;48.142;16.290;2022-10-17T11:11:53;38.75;;;19.98;;
14094;SDS011;18096;48.142;16.290;2022-10-17T11:22:54;34.70;;;20.95;;
14094;SDS011;18096;48.142;16.290;2022-10-17T11:25:49;40.63;;;22.38;;
14094;SDS011;18096;48.142;16.290;2022-10-17T11:28:17;28.77;;;18.92;;
14094;SDS011;18096;48.142;16.290;2022-10-17T11:30:55;30.20;;;18.13;;
14094;SDS011;18096;48.142;16.290;2022-10-17T11:36:05;30.80;;;17.85;;
14094;SDS011;18096;48.142;16.290;2022-10-17T11:42:08;31.17;;;18.45;;
14094;SDS011;18096;48.142;16.290;2022-10-17T11:44:39;34.15;;;17.15;;
14094;SDS011;18096;48.142;16.290;2022-10-17T11:47:15;35.20;;;17.42;;
14094;SDS011;18096;48.142;16.290;2022-10-17T11:49:49;27.73;;;17.38;;
14094;SDS011;18096;48.142;16.290;2022-10-17T11:55:36;28.17;;;16.07;;
14094;SDS011;18096;48.142;16.290;2022-10-17T11:58:42;23.83;;;16.67;;
14094;SDS011;18096;48.142;16.290;2022-10-17T12:06:54;33.45;;;16.60;;
14094;SDS011;18096;48.142;16.290;2022-10-17T12:09:42;25.13;;;16.10;;
14094;SDS011;18096;48.142;16.290;2022-10-17T12:12:24;40.38;;;16.45;;
14094;SDS011;18096;48.142;16.290;2022-10-17T12:14:51;30.77;;;17.20;;
14094;SDS011;18096;48.142;16.290;2022-10-17T12:22:47;28.90;;;16.87;;
14094;SDS011;18096;48.142;16.290;2022-10-17T12:25:18;27.85;;;16.52;;
14094;SDS011;18096;48.142;16.290;2022-10-17T12:31:00;22.17;;;14.88;;
14094;SDS011;18096;48.142;16.290;2022-10-17T12:33:48;29.98;;;15.05;;
14094;SDS011;18096;48.142;16.290;2022-10-17T12:46:47;26.67;;;15.40;;
14094;SDS011;18096;48.142;16.290;2022-10-17T12:55:22;17.03;;;12.83;;
14094;SDS011;18096;48.142;16.290;2022-10-17T13:03:32;25.07;;;13.40;;
14094;SDS011;18096;48.142;16.290;2022-10-17T13:06:02;19.88;;;13.27;;
14094;SDS011;18096;48.142;16.290;2022-10-17T13:08:32;26.05;;;13.95;;
14094;SDS011;18096;48.142;16.290;2022-10-17T13:11:01;16.55;;;12.77;;
14094;SDS011;18096;48.142;16.290;2022-10-17T13:13:38;21.40;;;12.50;;
14094;SDS011;18096;48.142;16.290;2022-10-17T13:16:07;24.75;;;11.88;;
14094;SDS011;18096;48.142;16.290;2022-10-17T13:18:33;19.60;;;11.80;;
14094;SDS011;18096;48.142;16.290;2022-10-17T13:21:01;20.55;;;11.32;;
14094;SDS011;18096;48.142;16.290;2022-10-17T13:23:36;18.45;;;11.70;;
14094;SDS011;18096;48.142;16.290;2022-10-17T13:26:06;17.25;;;12.00;;
14094;SDS011;18096;48.142;16.290;2022-10-17T13:28:40;15.95;;;11.02;;
14094;SDS011;18096;48.142;16.290;2022-10-17T13:31:19;18.23;;;12.18;;
14094;SDS011;18096;48.142;16.290;2022-10-17T13:33:54;17.00;;;11.27;;
14094;SDS011;18096;48.142;16.290;2022-10-17T13:36:21;19.20;;;10.95;;
14094;SDS011;18096;48.142;16.290;2022-10-17T13:38:47;24.98;;;11.93;;
14094;SDS011;18096;48.142;16.290;2022-10-17T13:41:12;17.07;;;11.50;;
14094;SDS011;18096;48.142;16.290;2022-10-17T13:43:40;16.55;;;10.68;;
14094;SDS011;18096;48.142;16.290;2022-10-17T13:46:06;19.27;;;11.50;;
14094;SDS011;18096;48.142;16.290;2022-10-17T13:48:40;16.15;;;10.85;;
14094;SDS011;18096;48.142;16.290;2022-10-17T13:51:07;22.65;;;10.77;;
14094;SDS011;18096;48.142;16.290;2022-10-17T13:53:34;13.20;;;9.60;;
14094;SDS011;18096;48.142;16.290;2022-10-17T13:58:31;20.23;;;10.90;;
14094;SDS011;18096;48.142;16.290;2022-10-17T14:01:05;18.70;;;10.50;;
14094;SDS011;18096;48.142;16.290;2022-10-17T14:03:32;15.48;;;9.73;;
14094;SDS011;18096;48.142;16.290;2022-10-17T14:05:59;18.30;;;10.93;;
14094;SDS011;18096;48.142;16.290;2022-10-17T14:08:26;16.50;;;9.90;;
14094;SDS011;18096;48.142;16.290;2022-10-17T14:10:52;13.77;;;10.20;;
14094;SDS011;18096;48.142;16.290;2022-10-17T14:13:20;20.23;;;10.00;;
14094;SDS011;18096;48.142;16.290;2022-10-17T14:15:59;20.13;;;10.50;;
14094;SDS011;18096;48.142;16.290;2022-10-17T14:18:28;20.67;;;10.60;;
14094;SDS011;18096;48.142;16.290;2022-10-17T14:20:56;13.43;;;9.15;;
14094;SDS011;18096;48.142;16.290;2022-10-17T14:23:27;14.60;;;9.85;;
14094;SDS011;18096;48.142;16.290;2022-10-17T14:26:03;15.03;;;9.57;;
14094;SDS011;18096;48.142;16.290;2022-10-17T14:28:29;14.73;;;9.82;;
14094;SDS011;18096;48.142;16.290;2022-10-17T14:31:07;15.87;;;9.80;;
14094;SDS011;18096;48.142;16.290;2022-10-17T14:33:50;18.40;;;9.97;;
14094;SDS011;18096;48.142;16.290;2022-10-17T14:36:18;16.17;;;10.77;;
14094;SDS011;18096;48.142;16.290;2022-10-17T14:38:46;15.98;;;9.77;;
14094;SDS011;18096;48.142;16.290;2022-10-17T14:41:25;16.48;;;8.98;;
14094;SDS011;18096;48.142;16.290;2022-10-17T14:43:57;14.80;;;9.70;;
14094;SDS011;18096;48.142;16.290;2022-10-17T14:46:24;15.95;;;10.05;;
14094;SDS011;18096;48.142;16.290;2022-10-17T14:48:55;15.00;;;9.10;;
14094;SDS011;18096;48.142;16.290;2022-10-17T14:51:28;16.48;;;10.02;;
14094;SDS011;18096;48.142;16.290;2022-10-17T14:54:02;12.05;;;9.23;;
14094;SDS011;18096;48.142;16.290;2022-10-17T14:56:38;12.48;;;9.27;;
14094;SDS011;18096;48.142;16.290;2022-10-17T14:59:05;14.70;;;10.23;;
14094;SDS011;18096;48.142;16.290;2022-10-17T15:01:34;12.70;;;9.40;;
14094;SDS011;18096;48.142;16.290;2022-10-17T15:03:59;13.18;;;10.02;;
14094;SDS011;18096;48.142;16.290;2022-10-17T15:06:27;13.48;;;9.20;;
14094;SDS011;18096;48.142;16.290;2022-10-17T15:08:54;22.93;;;9.60;;
14094;SDS011;18096;48.142;16.290;2022-10-17T15:11:21;15.57;;;10.00;;
14094;SDS011;18096;48.142;16.290;2022-10-17T15:13:47;15.97;;;10.33;;
14094;SDS011;18096;48.142;16.290;2022-10-17T15:16:14;15.68;;;9.43;;
14094;SDS011;18096;48.142;16.290;2022-10-17T15:18:49;23.00;;;9.77;;
14094;SDS011;18096;48.142;16.290;2022-10-17T15:21:18;11.20;;;8.45;;
14094;SDS011;18096;48.142;16.290;2022-10-17T15:23:45;11.50;;;8.93;;
14094;SDS011;18096;48.142;16.290;2022-10-17T15:26:12;16.20;;;8.90;;
14094;SDS011;18096;48.142;16.290;2022-10-17T15:28:42;17.37;;;9.00;;
14094;SDS011;18096;48.142;16.290;2022-10-17T15:31:13;10.90;;;8.27;;
14094;SDS011;18096;48.142;16.290;2022-10-17T15:33:40;15.80;;;9.83;;
14094;SDS011;18096;48.142;16.290;2022-10-17T15:36:17;14.75;;;9.55;;
14094;SDS011;18096;48.142;16.290;2022-10-17T15:38:57;18.50;;;9.70;;
14094;SDS011;18096;48.142;16.290;2022-10-17T15:41:25;24.20;;;9.18;;
14094;SDS011;18096;48.142;16.290;2022-10-17T15:43:53;13.23;;;7.78;;
14094;SDS011;18096;48.142;16.290;2022-10-17T15:46:22;12.50;;;8.30;;
14094;SDS011;18096;48.142;16.290;2022-10-17T15:48:50;19.58;;;8.80;;
14094;SDS011;18096;48.142;16.290;2022-10-17T15:51:20;14.30;;;8.60;;
14094;SDS011;18096;48.142;16.290;2022-10-17T15:53:47;15.27;;;8.80;;
14094;SDS011;18096;48.142;16.290;2022-10-17T15:56:22;13.35;;;8.30;;
14094;SDS011;18096;48.142;16.290;2022-10-17T15:58:50;12.83;;;9.00;;
14094;SDS011;18096;48.142;16.290;2022-10-17T16:01:21;14.27;;;8.32;;
14094;SDS011;18096;48.142;16.290;2022-10-17T16:03:50;12.52;;;7.78;;
14094;SDS011;18096;48.142;16.290;2022-10-17T16:06:17;10.50;;;7.77;;
14094;SDS011;18096;48.142;16.290;2022-10-17T16:08:44;16.85;;;8.20;;
14094;SDS011;18096;48.142;16.290;2022-10-17T16:11:18;12.05;;;7.95;;
14094;SDS011;18096;48.142;16.290;2022-10-17T16:13:52;13.95;;;8.07;;
14094;SDS011;18096;48.142;16.290;2022-10-17T16:16:19;9.40;;;7.30;;
14094;SDS011;18096;48.142;16.290;2022-10-17T16:18:47;12.00;;;8.63;;
14094;SDS011;18096;48.142;16.290;2022-10-17T16:21:13;11.38;;;8.90;;
14094;SDS011;18096;48.142;16.290;2022-10-17T16:23:40;9.30;;;7.60;;